Time;durP1;ratioP1;P1;durP2;ratioP2;P2;SDS_P1;SDS_P2;PMS_P1;PMS_P2;Temp;Humidity;BMP_temperature;BMP_pressure;BME280_temperature;BME280_humidity;BME280_pressure;Samples;Min_cycle;Max_cycle;Signal;HPM_P1;HPM_P2
2022/08/16 00:04:25;;;;;;;15.90;8.98;;;;;;;;;;10412859;28;20053;-74
2022/08/16 00:09:25;;;;;;;16.10;9.33;;;;;;;;;;10434326;28;20044;-74
2022/08/16 00:14:28;;;;;;;13.23;9.00;;;;;;;;;;10450188;28;20025;-74
2022/08/16 00:19:31;;;;;;;15.82;8.85;;;;;;;;;;10451580;28;20432;-71
2022/08/16 00:24:33;;;;;;;14.98;8.45;;;;;;;;;;10452247;28;20053;-71
2022/08/16 00:29:33;;;;;;;12.50;8.73;;;;;;;;;;10467625;28;20021;-71
2022/08/16 00:34:34;;;;;;;14.35;9.27;;;;;;;;;;10452106;28;20035;-71
2022/08/16 00:39:35;;;;;;;16.00;9.57;;;;;;;;;;10434318;28;20412;-75
2022/08/16 00:44:36;;;;;;;15.43;7.95;;;;;;;;;;10466539;28;20151;-73
2022/08/16 00:49:36;;;;;;;12.90;8.32;;;;;;;;;;10451490;28;20048;-72
2022/08/16 00:54:36;;;;;;;15.70;9.00;;;;;;;;;;10449829;28;20225;-72
2022/08/16 00:59:38;;;;;;;15.82;9.45;;;;;;;;;;10450095;28;20021;-77
2022/08/16 01:04:38;;;;;;;16.40;9.10;;;;;;;;;;10451266;28;20040;-73
2022/08/16 01:09:39;;;;;;;17.02;9.93;;;;;;;;;;10466221;28;20542;-77
2022/08/16 01:14:47;;;;;;;15.87;9.53;;;;;;;;;;10466163;28;20486;-75
2022/08/16 01:19:50;;;;;;;12.65;9.25;;;;;;;;;;10451267;28;20025;-75
2022/08/16 01:24:54;;;;;;;16.50;10.65;;;;;;;;;;10429087;28;20028;-73
2022/08/16 01:30:00;;;;;;;15.68;9.70;;;;;;;;;;10449158;28;20103;-71
2022/08/16 01:35:05;;;;;;;14.77;9.77;;;;;;;;;;10432837;28;20017;-78
2022/08/16 01:40:06;;;;;;;14.48;8.70;;;;;;;;;;10465234;28;20044;-78
2022/08/16 01:45:06;;;;;;;15.38;9.52;;;;;;;;;;10465242;28;20506;-75
2022/08/16 01:50:07;;;;;;;16.13;8.93;;;;;;;;;;10449015;28;20036;-72
2022/08/16 01:55:07;;;;;;;14.15;8.95;;;;;;;;;;10427144;28;20018;-73
2022/08/16 02:00:10;;;;;;;18.30;9.57;;;;;;;;;;10448358;28;20021;-75
2022/08/16 02:05:10;;;;;;;15.57;10.00;;;;;;;;;;10448230;28;20455;-71
2022/08/16 02:10:11;;;;;;;16.10;10.30;;;;;;;;;;10448055;28;20107;-80
2022/08/16 02:15:12;;;;;;;19.07;10.43;;;;;;;;;;10438849;28;20029;-72
2022/08/16 02:20:14;;;;;;;20.23;11.65;;;;;;;;;;10447935;28;20031;-71
2022/08/16 02:25:14;;;;;;;20.92;12.00;;;;;;;;;;10449014;28;20446;-71
2022/08/16 02:30:17;;;;;;;18.15;11.68;;;;;;;;;;10449024;28;20071;-71
2022/08/16 02:35:18;;;;;;;19.60;12.40;;;;;;;;;;10449849;28;20610;-73
2022/08/16 02:40:19;;;;;;;24.33;11.52;;;;;;;;;;10438704;28;20136;-75
2022/08/16 02:45:20;;;;;;;20.42;11.57;;;;;;;;;;10471452;28;20116;-75
2022/08/16 02:50:21;;;;;;;21.27;12.50;;;;;;;;;;10471949;28;20078;-71
2022/08/16 02:55:22;;;;;;;23.02;12.15;;;;;;;;;;10456020;28;20090;-72
2022/08/16 03:00:22;;;;;;;21.13;12.82;;;;;;;;;;10471670;28;20032;-75
2022/08/16 03:05:23;;;;;;;22.10;12.98;;;;;;;;;;10471826;28;20017;-73
2022/08/16 03:10:23;;;;;;;19.00;12.23;;;;;;;;;;10470759;28;20018;-72
2022/08/16 03:15:24;;;;;;;22.98;13.52;;;;;;;;;;10454299;28;20025;-76
2022/08/16 03:20:24;;;;;;;23.83;13.02;;;;;;;;;;10453756;28;20106;-71
2022/08/16 03:25:24;;;;;;;22.63;12.70;;;;;;;;;;10437105;28;20351;-72
2022/08/16 03:30:27;;;;;;;21.42;12.77;;;;;;;;;;10454929;28;20032;-72
2022/08/16 03:35:29;;;;;;;26.13;13.70;;;;;;;;;;10453053;28;20029;-72
2022/08/16 03:40:30;;;;;;;22.52;13.77;;;;;;;;;;10470138;28;20087;-72
2022/08/16 03:45:34;;;;;;;22.40;13.63;;;;;;;;;;10452676;28;20052;-75
2022/08/16 03:50:35;;;;;;;21.63;13.18;;;;;;;;;;10468978;28;20025;-71
2022/08/16 03:55:36;;;;;;;20.52;13.18;;;;;;;;;;10469289;28;20119;-73
2022/08/16 04:00:36;;;;;;;19.10;11.77;;;;;;;;;;10452378;28;20021;-72
2022/08/16 04:05:38;;;;;;;19.75;11.88;;;;;;;;;;10452678;28;20024;-75
2022/08/16 04:10:38;;;;;;;18.85;11.57;;;;;;;;;;10449040;28;20112;-71
2022/08/16 04:15:39;;;;;;;17.73;11.18;;;;;;;;;;10427762;28;20115;-73
2022/08/16 04:20:39;;;;;;;18.40;11.60;;;;;;;;;;10463227;28;20475;-71
2022/08/16 04:25:39;;;;;;;21.73;13.02;;;;;;;;;;10398212;28;20030;-72
2022/08/16 04:30:40;;;;;;;24.65;12.73;;;;;;;;;;10380947;28;20132;-73
2022/08/16 04:35:40;;;;;;;21.10;12.33;;;;;;;;;;10425292;28;20542;-72
2022/08/16 04:40:40;;;;;;;20.58;12.35;;;;;;;;;;10437314;28;20048;-73
2022/08/16 04:45:41;;;;;;;22.00;12.50;;;;;;;;;;10419249;28;20509;-73
2022/08/16 04:50:43;;;;;;;28.17;14.57;;;;;;;;;;10439728;28;20498;-72
2022/08/16 04:55:43;;;;;;;17.27;11.05;;;;;;;;;;10428294;28;20036;-74
2022/08/16 05:00:43;;;;;;;19.77;11.65;;;;;;;;;;10442053;28;20451;-72
2022/08/16 05:05:44;;;;;;;25.05;13.25;;;;;;;;;;10407915;28;20048;-73
2022/08/16 05:10:44;;;;;;;22.10;14.05;;;;;;;;;;10442776;28;20111;-74
2022/08/16 05:15:45;;;;;;;24.23;13.77;;;;;;;;;;10449601;28;20032;-74
2022/08/16 05:20:46;;;;;;;22.77;12.95;;;;;;;;;;10451918;28;20074;-75
2022/08/16 05:25:46;;;;;;;21.55;12.82;;;;;;;;;;10446352;28;20020;-74
2022/08/16 05:30:46;;;;;;;28.48;12.98;;;;;;;;;;10446362;28;20036;-72
2022/08/16 05:35:47;;;;;;;22.83;12.77;;;;;;;;;;10444093;28;20171;-73
2022/08/16 05:40:48;;;;;;;22.02;11.98;;;;;;;;;;10445979;28;20526;-73
2022/08/16 05:45:48;;;;;;;15.63;10.83;;;;;;;;;;10449153;28;20124;-73
2022/08/16 05:50:48;;;;;;;15.73;9.48;;;;;;;;;;10448987;28;20031;-73
2022/08/16 05:55:49;;;;;;;21.83;10.63;;;;;;;;;;10464080;28;20110;-73
2022/08/16 06:00:49;;;;;;;18.10;10.80;;;;;;;;;;10464403;28;20028;-73
2022/08/16 06:05:49;;;;;;;18.55;9.55;;;;;;;;;;10447841;28;20284;-74
2022/08/16 06:10:49;;;;;;;15.65;9.98;;;;;;;;;;10466297;28;20474;-73
2022/08/16 06:15:50;;;;;;;18.50;10.38;;;;;;;;;;10457453;28;20516;-73
2022/08/16 06:20:51;;;;;;;19.33;9.60;;;;;;;;;;10456060;28;20023;-72
2022/08/16 06:25:52;;;;;;;13.50;7.88;;;;;;;;;;10472204;28;20025;-72
2022/08/16 06:30:52;;;;;;;15.10;8.30;;;;;;;;;;10472311;28;20387;-73
2022/08/16 06:35:54;;;;;;;18.48;9.18;;;;;;;;;;10438922;28;20036;-73
2022/08/16 06:40:54;;;;;;;15.00;8.10;;;;;;;;;;10471679;28;20094;-72
2022/08/16 06:45:55;;;;;;;15.52;9.10;;;;;;;;;;10449523;28;20116;-72
2022/08/16 06:50:57;;;;;;;12.77;8.03;;;;;;;;;;10413824;28;20520;-72
2022/08/16 06:55:57;;;;;;;15.43;7.57;;;;;;;;;;10444690;28;20067;-72
2022/08/16 07:00:58;;;;;;;16.08;7.10;;;;;;;;;;10471033;28;20114;-74
2022/08/16 07:05:59;;;;;;;13.50;8.40;;;;;;;;;;10453978;28;20028;-73
2022/08/16 07:10:59;;;;;;;15.38;8.65;;;;;;;;;;10455264;28;20112;-72
2022/08/16 07:16:00;;;;;;;15.07;7.93;;;;;;;;;;10453673;28;20024;-73
2022/08/16 07:21:00;;;;;;;10.63;7.17;;;;;;;;;;10454333;28;20025;-72
2022/08/16 07:26:00;;;;;;;11.68;7.28;;;;;;;;;;10470014;28;20414;-74
2022/08/16 07:31:02;;;;;;;9.87;6.27;;;;;;;;;;10453071;28;20542;-73
2022/08/16 07:36:03;;;;;;;10.80;5.95;;;;;;;;;;10454502;28;20035;-73
2022/08/16 07:41:03;;;;;;;15.18;7.75;;;;;;;;;;10469579;28;20136;-73
2022/08/16 07:46:04;;;;;;;7.45;5.72;;;;;;;;;;10452991;28;20127;-73
2022/08/16 07:51:04;;;;;;;10.02;5.95;;;;;;;;;;10469349;28;20121;-73
2022/08/16 07:56:05;;;;;;;14.30;6.80;;;;;;;;;;10451881;28;20021;-73
2022/08/16 08:01:05;;;;;;;12.43;6.57;;;;;;;;;;10434929;28;20613;-73
2022/08/16 08:06:06;;;;;;;11.30;6.57;;;;;;;;;;10385099;28;20033;-76
2022/08/16 08:11:06;;;;;;;8.83;5.50;;;;;;;;;;10417109;28;20268;-76
2022/08/16 08:16:08;;;;;;;14.18;5.70;;;;;;;;;;10409680;28;20508;-74
2022/08/16 08:21:09;;;;;;;9.40;6.00;;;;;;;;;;10404488;28;20441;-77
2022/08/16 08:26:09;;;;;;;7.30;5.07;;;;;;;;;;10433300;28;20033;-77
2022/08/16 08:31:09;;;;;;;10.48;6.10;;;;;;;;;;10400632;28;20087;-76
2022/08/16 08:36:13;;;;;;;9.27;6.00;;;;;;;;;;10407173;28;20032;-77
2022/08/16 08:41:14;;;;;;;7.20;5.13;;;;;;;;;;10430308;28;20477;-79
2022/08/16 08:46:14;;;;;;;11.37;5.20;;;;;;;;;;10446412;28;20444;-78
2022/08/16 08:51:17;;;;;;;10.45;5.03;;;;;;;;;;10399610;28;20021;-78
2022/08/16 08:56:18;;;;;;;11.18;4.75;;;;;;;;;;10412013;28;20553;-78
2022/08/16 09:01:21;;;;;;;12.30;4.72;;;;;;;;;;10399940;28;20139;-81
2022/08/16 09:06:21;;;;;;;13.57;4.95;;;;;;;;;;10420238;28;20571;-78
2022/08/16 09:11:21;;;;;;;8.10;4.20;;;;;;;;;;10412490;28;20033;-79
2022/08/16 09:16:22;;;;;;;7.00;3.80;;;;;;;;;;10416583;28;20017;-77
2022/08/16 09:21:22;;;;;;;7.30;4.10;;;;;;;;;;10407741;28;20025;-75
2022/08/16 09:26:23;;;;;;;6.22;3.85;;;;;;;;;;10424951;28;20447;-80
2022/08/16 09:31:23;;;;;;;6.10;4.13;;;;;;;;;;10406683;28;20021;-73
2022/08/16 09:36:23;;;;;;;6.07;3.33;;;;;;;;;;10416948;28;20050;-78
2022/08/16 09:41:24;;;;;;;4.70;3.67;;;;;;;;;;10396970;28;20426;-76
2022/08/16 09:46:24;;;;;;;5.10;3.20;;;;;;;;;;10410817;28;20044;-74
2022/08/16 09:51:25;;;;;;;4.25;3.08;;;;;;;;;;10416646;28;20033;-77
2022/08/16 09:56:29;;;;;;;5.15;3.10;;;;;;;;;;10418031;28;20029;-75
2022/08/16 10:01:30;;;;;;;2.78;2.47;;;;;;;;;;10424073;28;20108;-76
2022/08/16 10:06:31;;;;;;;5.55;3.45;;;;;;;;;;10403867;28;20398;-77
2022/08/16 10:16:50;;;;;;;5.25;2.50;;;;;;;;;;10408926;28;20063;-79
2022/08/16 10:21:50;;;;;;;3.97;2.80;;;;;;;;;;10407181;28;20496;-76
2022/08/16 10:26:51;;;;;;;9.77;2.90;;;;;;;;;;10401484;28;20032;-77
2022/08/16 10:31:51;;;;;;;2.67;2.47;;;;;;;;;;10410877;28;20017;-77
2022/08/16 10:36:52;;;;;;;2.40;2.00;;;;;;;;;;10405332;28;20033;-80
2022/08/16 10:41:52;;;;;;;4.03;2.53;;;;;;;;;;10404807;28;20451;-77
2022/08/16 10:46:52;;;;;;;5.25;2.78;;;;;;;;;;10408498;28;20040;-76
2022/08/16 10:51:54;;;;;;;5.50;2.60;;;;;;;;;;10409701;28;20487;-75
2022/08/16 10:56:55;;;;;;;3.63;2.45;;;;;;;;;;10429593;23;20537;-75
2022/08/16 11:01:55;;;;;;;14.95;3.00;;;;;;;;;;10403862;28;20021;-76
2022/08/16 11:06:56;;;;;;;5.45;2.80;;;;;;;;;;10386292;28;20199;-75
2022/08/16 11:11:56;;;;;;;6.63;3.57;;;;;;;;;;10397001;28;20022;-76
2022/08/16 11:16:58;;;;;;;5.97;2.90;;;;;;;;;;10401166;28;20037;-77
2022/08/16 11:21:59;;;;;;;4.65;3.15;;;;;;;;;;10420262;28;20021;-72
2022/08/16 11:27:00;;;;;;;7.72;3.13;;;;;;;;;;10384444;28;20024;-77
2022/08/16 11:32:01;;;;;;;5.22;3.28;;;;;;;;;;10394309;28;20025;-77
2022/08/16 11:37:02;;;;;;;5.57;3.20;;;;;;;;;;10409635;28;20479;-76
2022/08/16 11:42:02;;;;;;;6.85;3.45;;;;;;;;;;10378623;28;20125;-72
2022/08/16 11:47:03;;;;;;;6.77;4.00;;;;;;;;;;10394069;28;20029;-77
2022/08/16 11:52:04;;;;;;;5.50;3.53;;;;;;;;;;10399556;28;20075;-77
2022/08/16 11:57:04;;;;;;;14.30;3.65;;;;;;;;;;10400418;28;20160;-77
2022/08/16 12:02:05;;;;;;;5.33;3.37;;;;;;;;;;10397369;28;20466;-78
2022/08/16 12:07:07;;;;;;;7.03;3.35;;;;;;;;;;10409772;28;20447;-78
2022/08/16 12:12:08;;;;;;;4.38;2.47;;;;;;;;;;10399808;28;20026;-78
2022/08/16 12:17:08;;;;;;;3.72;2.60;;;;;;;;;;10413814;28;20029;-79
2022/08/16 12:22:08;;;;;;;4.20;3.23;;;;;;;;;;10406020;28;20837;-77
2022/08/16 12:27:09;;;;;;;4.03;2.85;;;;;;;;;;10398699;28;20036;-72
2022/08/16 12:32:09;;;;;;;9.60;4.13;;;;;;;;;;10404486;28;20030;-77
2022/08/16 12:37:09;;;;;;;7.35;3.90;;;;;;;;;;10398147;28;20045;-79
2022/08/16 12:42:09;;;;;;;5.25;3.60;;;;;;;;;;10392538;28;20037;-78
2022/08/16 12:52:30;;;;;;;6.40;3.78;;;;;;;;;;10402862;28;20029;-77
2022/08/16 12:57:31;;;;;;;7.50;3.97;;;;;;;;;;10397096;28;20057;-78
2022/08/16 13:02:32;;;;;;;6.07;3.20;;;;;;;;;;10396302;28;20067;-78
2022/08/16 13:07:32;;;;;;;7.90;4.13;;;;;;;;;;10403107;28;20088;-77
2022/08/16 13:12:33;;;;;;;8.83;4.07;;;;;;;;;;10397840;28;20387;-79
2022/08/16 13:17:33;;;;;;;6.65;3.50;;;;;;;;;;10409721;28;20080;-78
2022/08/16 13:22:39;;;;;;;6.20;3.53;;;;;;;;;;10405289;28;20095;-77
2022/08/16 13:27:39;;;;;;;7.95;3.40;;;;;;;;;;10397348;28;20111;-78
2022/08/16 13:32:39;;;;;;;10.52;4.18;;;;;;;;;;10398008;28;20516;-77
2022/08/16 13:37:40;;;;;;;13.10;4.45;;;;;;;;;;10406617;28;20038;-76
2022/08/16 13:42:41;;;;;;;6.25;3.55;;;;;;;;;;10393390;28;20025;-78
2022/08/16 13:47:41;;;;;;;6.55;3.20;;;;;;;;;;10389496;28;20479;-77
2022/08/16 13:52:41;;;;;;;5.22;2.90;;;;;;;;;;10408857;28;20032;-77
2022/08/16 13:57:42;;;;;;;7.13;2.28;;;;;;;;;;10396755;28;20432;-76
2022/08/16 14:02:42;;;;;;;8.68;2.72;;;;;;;;;;10391458;28;20506;-77
2022/08/16 14:07:43;;;;;;;3.83;2.65;;;;;;;;;;10403631;28;20029;-77
2022/08/16 14:12:43;;;;;;;3.73;2.33;;;;;;;;;;10397494;28;20017;-77
2022/08/16 14:17:43;;;;;;;9.17;2.37;;;;;;;;;;10396332;28;20052;-75
2022/08/16 14:22:44;;;;;;;4.53;2.60;;;;;;;;;;10397991;28;20029;-76
2022/08/16 14:27:45;;;;;;;5.20;2.40;;;;;;;;;;10397385;28;20029;-77
2022/08/16 14:32:46;;;;;;;5.38;2.53;;;;;;;;;;10404152;28;20021;-77
2022/08/16 14:37:47;;;;;;;8.77;3.20;;;;;;;;;;10409611;28;20064;-78
2022/08/16 14:42:48;;;;;;;5.93;3.17;;;;;;;;;;10394613;28;20018;-76
2022/08/16 14:47:48;;;;;;;7.90;3.42;;;;;;;;;;10389324;28;20025;-78
2022/08/16 14:52:54;;;;;;;8.73;3.00;;;;;;;;;;10392334;28;20493;-78
2022/08/16 14:57:54;;;;;;;6.70;2.50;;;;;;;;;;10407668;28;20049;-77
2022/08/16 15:02:56;;;;;;;12.38;2.90;;;;;;;;;;10393791;28;20038;-78
2022/08/16 15:07:56;;;;;;;5.53;2.47;;;;;;;;;;10401058;28;20410;-77
2022/08/16 15:12:57;;;;;;;8.27;3.00;;;;;;;;;;10389730;28;20021;-77
2022/08/16 15:17:57;;;;;;;7.18;2.65;;;;;;;;;;10401016;28;20028;-77
2022/08/16 15:22:59;;;;;;;13.27;3.40;;;;;;;;;;10397226;28;20026;-76
2022/08/16 15:28:01;;;;;;;5.47;2.70;;;;;;;;;;10393666;28;20064;-73
2022/08/16 15:33:02;;;;;;;5.20;2.22;;;;;;;;;;10399667;28;20026;-77
2022/08/16 15:38:03;;;;;;;4.10;3.00;;;;;;;;;;10405581;28;20416;-77
2022/08/16 15:43:06;;;;;;;14.48;2.67;;;;;;;;;;10398065;28;20052;-76
2022/08/16 15:48:07;;;;;;;7.47;2.80;;;;;;;;;;10396800;28;20025;-73
2022/08/16 15:53:13;;;;;;;6.30;3.25;;;;;;;;;;10398677;28;20025;-74
2022/08/16 15:58:14;;;;;;;5.20;3.45;;;;;;;;;;10402554;28;20056;-75
2022/08/16 16:03:16;;;;;;;6.70;3.00;;;;;;;;;;10396380;28;20037;-76
2022/08/16 16:08:17;;;;;;;9.13;3.38;;;;;;;;;;10399222;28;20026;-79
2022/08/16 16:13:17;;;;;;;8.77;3.28;;;;;;;;;;10412930;28;20020;-79
2022/08/16 16:18:18;;;;;;;4.13;2.88;;;;;;;;;;10398891;28;20350;-79
2022/08/16 16:23:21;;;;;;;10.68;4.82;;;;;;;;;;10401742;28;20026;-78
2022/08/16 16:28:22;;;;;;;11.07;3.92;;;;;;;;;;10392756;28;20018;-77
2022/08/16 16:33:24;;;;;;;12.55;3.55;;;;;;;;;;10393064;28;20025;-75
2022/08/16 16:38:29;;;;;;;8.80;2.92;;;;;;;;;;10401190;28;20021;-77
2022/08/16 16:43:30;;;;;;;6.20;4.22;;;;;;;;;;10401860;28;20836;-75
2022/08/16 16:48:31;;;;;;;13.13;4.90;;;;;;;;;;10399841;28;20021;-77
2022/08/16 16:53:31;;;;;;;11.43;3.95;;;;;;;;;;10397965;28;20030;-78
2022/08/16 17:03:50;;;;;;;7.95;5.13;;;;;;;;;;10395266;28;20486;-78
2022/08/16 17:08:51;;;;;;;9.30;4.27;;;;;;;;;;10394894;28;20022;-76
2022/08/16 17:13:52;;;;;;;9.23;4.28;;;;;;;;;;10392344;28;20017;-74
2022/08/16 17:18:52;;;;;;;9.25;4.13;;;;;;;;;;10405108;28;20026;-73
2022/08/16 17:23:53;;;;;;;10.10;4.20;;;;;;;;;;10404827;28;20349;-76
2022/08/16 17:28:53;;;;;;;7.00;4.00;;;;;;;;;;10394923;28;20119;-79
2022/08/16 17:33:53;;;;;;;12.13;5.03;;;;;;;;;;10442405;23;20053;-78
2022/08/16 17:38:54;;;;;;;9.70;5.83;;;;;;;;;;10393847;28;20029;-77
2022/08/16 17:43:54;;;;;;;13.52;4.90;;;;;;;;;;10404083;28;20091;-77
2022/08/16 17:48:55;;;;;;;12.35;5.40;;;;;;;;;;10402670;28;20055;-77
2022/08/16 17:53:55;;;;;;;9.93;4.13;;;;;;;;;;10408575;28;20029;-77
2022/08/16 17:58:55;;;;;;;8.57;5.07;;;;;;;;;;10409477;28;20032;-78
2022/08/16 18:03:56;;;;;;;9.30;4.77;;;;;;;;;;10402735;28;20585;-73
2022/08/16 18:08:57;;;;;;;13.67;4.70;;;;;;;;;;10414268;28;20267;-76
2022/08/16 18:13:57;;;;;;;10.82;5.57;;;;;;;;;;10407174;28;20025;-76
2022/08/16 18:18:58;;;;;;;13.50;5.30;;;;;;;;;;10409020;28;20059;-73
2022/08/16 18:23:58;;;;;;;12.85;5.55;;;;;;;;;;10422037;28;20029;-74
2022/08/16 18:28:58;;;;;;;12.37;5.47;;;;;;;;;;10415844;28;20093;-74
2022/08/16 18:34:00;;;;;;;8.07;5.38;;;;;;;;;;10416487;28;20057;-74
2022/08/16 18:39:00;;;;;;;13.05;5.65;;;;;;;;;;10423869;28;20060;-74
2022/08/16 18:44:00;;;;;;;11.30;6.03;;;;;;;;;;10411370;28;20029;-73
2022/08/16 18:49:01;;;;;;;10.63;6.07;;;;;;;;;;10413997;28;20088;-73
2022/08/16 18:54:01;;;;;;;11.27;5.55;;;;;;;;;;10410373;28;20052;-74
2022/08/16 18:59:01;;;;;;;12.80;5.60;;;;;;;;;;10416738;28;20597;-76
2022/08/16 19:04:02;;;;;;;13.05;4.63;;;;;;;;;;10418563;28;20495;-76
2022/08/16 19:09:02;;;;;;;7.73;3.90;;;;;;;;;;10422363;28;20025;-78
2022/08/16 19:14:02;;;;;;;6.50;4.18;;;;;;;;;;10412691;28;20463;-77
2022/08/16 19:19:02;;;;;;;6.78;4.07;;;;;;;;;;10407446;28;20080;-75
2022/08/16 19:24:03;;;;;;;6.93;3.70;;;;;;;;;;10408110;28;20025;-75
2022/08/16 19:29:03;;;;;;;5.80;4.23;;;;;;;;;;10399771;28;20037;-77
2022/08/16 19:34:03;;;;;;;7.65;3.78;;;;;;;;;;10408850;28;20057;-76
2022/08/16 19:39:07;;;;;;;7.70;3.63;;;;;;;;;;10408492;28;20021;-76
2022/08/16 19:44:08;;;;;;;7.32;3.50;;;;;;;;;;10408410;28;20067;-76
2022/08/16 19:49:08;;;;;;;7.00;3.70;;;;;;;;;;10419069;28;20022;-73
2022/08/16 19:54:10;;;;;;;7.90;3.50;;;;;;;;;;10393777;28;20060;-78
2022/08/16 19:59:10;;;;;;;5.70;3.47;;;;;;;;;;10400572;28;20341;-73
2022/08/16 20:04:11;;;;;;;5.30;3.70;;;;;;;;;;10403339;28;20416;-78
2022/08/16 20:09:11;;;;;;;6.13;3.80;;;;;;;;;;10400788;28;20029;-73
2022/08/16 20:14:15;;;;;;;9.50;4.07;;;;;;;;;;10386665;28;20315;-73
2022/08/16 20:19:15;;;;;;;9.18;3.22;;;;;;;;;;10395003;28;20025;-78
2022/08/16 20:24:16;;;;;;;5.90;3.47;;;;;;;;;;10409212;28;20041;-76
2022/08/16 20:29:16;;;;;;;6.40;3.47;;;;;;;;;;10414978;28;20171;-76
2022/08/16 20:34:17;;;;;;;7.05;3.00;;;;;;;;;;10398666;28;20546;-72
2022/08/16 20:39:17;;;;;;;6.10;3.72;;;;;;;;;;10400912;28;20033;-77
2022/08/16 20:44:17;;;;;;;6.90;3.78;;;;;;;;;;10398287;28;20422;-78
2022/08/16 20:49:18;;;;;;;7.40;3.50;;;;;;;;;;10419512;28;20079;-72
2022/08/16 20:54:18;;;;;;;7.25;3.80;;;;;;;;;;10399606;28;20029;-75
2022/08/16 20:59:19;;;;;;;8.20;4.07;;;;;;;;;;10399278;28;20025;-75
2022/08/16 21:04:20;;;;;;;7.13;3.28;;;;;;;;;;10396629;28;20070;-74
2022/08/16 21:09:24;;;;;;;4.35;2.63;;;;;;;;;;10414636;28;20048;-74
2022/08/16 21:14:24;;;;;;;6.68;3.60;;;;;;;;;;10405343;28;20098;-76
2022/08/16 21:19:26;;;;;;;5.63;3.03;;;;;;;;;;10402755;28;20033;-77
2022/08/16 21:24:26;;;;;;;9.30;3.80;;;;;;;;;;10402335;28;20029;-76
2022/08/16 21:29:26;;;;;;;11.45;4.50;;;;;;;;;;10422466;28;20080;-77
2022/08/16 21:34:26;;;;;;;11.15;4.13;;;;;;;;;;10406265;28;20108;-72
2022/08/16 21:39:26;;;;;;;7.43;4.20;;;;;;;;;;10394200;28;20033;-76
2022/08/16 21:44:27;;;;;;;5.38;3.38;;;;;;;;;;10402392;28;20117;-76
2022/08/16 21:49:28;;;;;;;7.45;3.45;;;;;;;;;;10409012;28;20050;-73
2022/08/16 21:54:28;;;;;;;16.52;5.95;;;;;;;;;;10413322;28;20021;-77
2022/08/16 21:59:29;;;;;;;7.18;4.43;;;;;;;;;;10419588;28;20125;-73
2022/08/16 22:04:29;;;;;;;10.38;3.95;;;;;;;;;;10423212;28;20486;-73
2022/08/16 22:09:29;;;;;;;9.97;4.83;;;;;;;;;;10407444;28;20055;-74
2022/08/16 22:14:30;;;;;;;8.68;4.80;;;;;;;;;;10409616;28;20021;-74
2022/08/16 22:19:30;;;;;;;9.70;4.17;;;;;;;;;;10406663;28;20059;-74
2022/08/16 22:24:30;;;;;;;8.25;4.20;;;;;;;;;;10423001;28;20280;-76
2022/08/16 22:29:30;;;;;;;8.07;4.80;;;;;;;;;;10417754;28;20022;-74
2022/08/16 22:34:31;;;;;;;8.85;4.32;;;;;;;;;;10434946;28;20057;-74
2022/08/16 22:39:31;;;;;;;7.60;4.30;;;;;;;;;;10423528;28;20119;-79
2022/08/16 22:44:32;;;;;;;9.32;4.72;;;;;;;;;;10405625;28;20025;-74
2022/08/16 22:49:32;;;;;;;7.78;4.60;;;;;;;;;;10379319;28;20009;-74
2022/08/16 22:54:34;;;;;;;8.45;5.18;;;;;;;;;;10412686;28;20090;-74
2022/08/16 22:59:35;;;;;;;6.38;4.80;;;;;;;;;;10416424;28;20021;-73
2022/08/16 23:04:35;;;;;;;7.57;4.15;;;;;;;;;;10417224;28;20040;-74
2022/08/16 23:09:35;;;;;;;9.05;4.68;;;;;;;;;;10420334;28;20029;-73
2022/08/16 23:14:36;;;;;;;7.68;4.78;;;;;;;;;;10397003;28;20399;-72
2022/08/16 23:19:36;;;;;;;11.10;4.22;;;;;;;;;;10415974;28;20091;-72
2022/08/16 23:24:36;;;;;;;7.60;4.10;;;;;;;;;;10424675;28;20021;-73
2022/08/16 23:29:37;;;;;;;7.60;4.88;;;;;;;;;;10412178;28;20056;-73
2022/08/16 23:34:37;;;;;;;11.77;4.53;;;;;;;;;;10423558;28;20502;-73
2022/08/16 23:39:37;;;;;;;9.57;4.70;;;;;;;;;;10413222;28;20053;-73
2022/08/16 23:44:38;;;;;;;14.57;5.60;;;;;;;;;;10417267;28;20032;-74
2022/08/16 23:49:38;;;;;;;9.57;5.05;;;;;;;;;;10396841;28;20116;-73
2022/08/16 23:54:38;;;;;;;10.25;4.93;;;;;;;;;;10412486;28;20372;-73
2022/08/16 23:59:39;;;;;;;6.72;4.70;;;;;;;;;;10421184;28;20532;-74
